createdAt,value
2022-11-29T00:00:03.086Z,997.95
2022-11-29T00:05:00.141Z,997.93
2022-11-29T00:10:00.107Z,997.91
2022-11-29T00:15:00.086Z,997.85
2022-11-29T00:20:00.126Z,997.9
2022-11-29T00:25:00.148Z,997.86
2022-11-29T00:30:00.092Z,997.8
2022-11-29T00:35:02.044Z,997.78
2022-11-29T00:40:00.120Z,997.8
2022-11-29T00:45:00.125Z,997.81
2022-11-29T00:50:00.115Z,997.79
2022-11-29T00:55:00.117Z,997.82
2022-11-29T01:00:00.169Z,997.85
2022-11-29T01:05:00.122Z,997.8
2022-11-29T01:10:00.126Z,997.81
2022-11-29T01:15:00.089Z,997.78
2022-11-29T01:20:00.131Z,997.85
2022-11-29T01:25:00.141Z,997.83
2022-11-29T01:30:00.126Z,997.88
2022-11-29T01:35:00.099Z,997.89
2022-11-29T01:40:00.141Z,997.89
2022-11-29T01:45:00.120Z,997.91
2022-11-29T01:50:00.097Z,997.92
2022-11-29T01:55:00.129Z,997.99
2022-11-29T02:00:00.145Z,997.88
2022-11-29T02:05:00.133Z,997.95
2022-11-29T02:10:00.101Z,997.91
2022-11-29T02:15:00.130Z,997.9
2022-11-29T02:20:00.111Z,997.91
2022-11-29T02:25:00.118Z,997.95
2022-11-29T02:30:00.175Z,997.98
2022-11-29T02:35:00.109Z,997.99
2022-11-29T02:40:00.112Z,997.94
2022-11-29T02:45:00.154Z,997.97
2022-11-29T02:50:00.128Z,998
2022-11-29T02:55:00.138Z,997.95
2022-11-29T03:00:00.148Z,997.96
2022-11-29T03:05:00.153Z,998.05
2022-11-29T03:10:00.160Z,998.2
2022-11-29T03:15:00.170Z,998.12
2022-11-29T03:20:00.103Z,998.13
2022-11-29T03:25:00.133Z,998.18
2022-11-29T03:30:00.095Z,998.2
2022-11-29T03:35:00.118Z,998.23
2022-11-29T03:40:00.102Z,998.22
2022-11-29T03:45:00.114Z,998.25
2022-11-29T03:50:00.123Z,998.22
2022-11-29T03:55:00.117Z,998.22
2022-11-29T04:00:00.101Z,998.22
2022-11-29T04:05:00.197Z,998.22
2022-11-29T04:10:00.114Z,998.24
2022-11-29T04:15:00.121Z,998.27
2022-11-29T04:20:00.121Z,998.29
2022-11-29T04:25:00.175Z,997.83
2022-11-29T04:30:00.121Z,997.82
2022-11-29T04:35:00.093Z,997.82
2022-11-29T04:40:00.132Z,997.83
2022-11-29T04:45:00.106Z,997.98
2022-11-29T04:50:00.097Z,997.96
2022-11-29T04:55:00.099Z,997.94
2022-11-29T05:00:00.139Z,998.04
2022-11-29T05:05:00.137Z,998.03
2022-11-29T05:10:00.126Z,998.05
2022-11-29T05:15:00.100Z,998.08
2022-11-29T05:20:00.102Z,998.11
2022-11-29T05:25:00.120Z,998.21
2022-11-29T05:30:00.124Z,998.24
2022-11-29T05:35:00.117Z,998.33
2022-11-29T05:40:00.100Z,998.3
2022-11-29T05:45:00.129Z,998.27
2022-11-29T05:50:00.098Z,998.29
2022-11-29T05:55:00.117Z,998.44
2022-11-29T06:00:00.095Z,998.46
2022-11-29T06:05:00.139Z,998.45
2022-11-29T06:10:01.756Z,998.41
2022-11-29T06:15:00.131Z,998.7
2022-11-29T06:20:00.131Z,998.68
2022-11-29T06:25:00.135Z,998.69
2022-11-29T06:30:00.172Z,998.73
2022-11-29T06:35:00.115Z,998.71
2022-11-29T06:40:00.145Z,998.77
2022-11-29T06:45:00.122Z,998.78
2022-11-29T06:50:00.175Z,998.79
2022-11-29T06:55:00.103Z,998.83
2022-11-29T07:00:00.153Z,998.88
2022-11-29T07:05:00.365Z,998.95
2022-11-29T07:10:00.102Z,999.05
2022-11-29T07:15:00.095Z,999.06
2022-11-29T07:20:00.115Z,999.08
2022-11-29T07:25:00.124Z,999.11
2022-11-29T07:30:00.132Z,999.14
2022-11-29T07:35:00.115Z,999.07
2022-11-29T07:40:00.143Z,999.2
2022-11-29T07:45:00.127Z,999.27
2022-11-29T07:50:00.104Z,999.21
2022-11-29T07:55:00.108Z,999.27
2022-11-29T08:00:00.243Z,999.26
2022-11-29T08:05:00.129Z,999.26
2022-11-29T08:10:00.120Z,999.41
2022-11-29T08:15:00.100Z,999.34
2022-11-29T08:20:03.973Z,999.45
2022-11-29T08:25:00.141Z,999.38
2022-11-29T08:30:00.128Z,999.45
2022-11-29T08:35:00.099Z,999.48
2022-11-29T08:40:00.124Z,999.52
2022-11-29T08:45:00.203Z,999.56
2022-11-29T08:50:00.130Z,999.6
2022-11-29T08:55:03.065Z,999.62
2022-11-29T09:00:00.111Z,999.59
2022-11-29T09:05:00.145Z,999.63
2022-11-29T09:10:00.099Z,999.66
2022-11-29T09:15:00.123Z,999.7
2022-11-29T09:20:00.162Z,999.75
2022-11-29T09:25:00.165Z,999.79
2022-11-29T09:30:00.124Z,999.82
2022-11-29T09:35:00.097Z,999.87
2022-11-29T09:40:00.105Z,999.87
2022-11-29T09:45:00.123Z,999.87
2022-11-29T09:50:00.095Z,999.81
2022-11-29T09:55:00.106Z,999.92
2022-11-29T10:00:00.130Z,999.91
2022-11-29T10:05:00.109Z,999.93
2022-11-29T10:10:00.093Z,999.92
2022-11-29T10:15:00.121Z,1000.01
2022-11-29T10:20:00.107Z,999.92
2022-11-29T10:25:00.112Z,999.95
2022-11-29T10:30:00.121Z,999.95
2022-11-29T10:35:00.109Z,999.9
2022-11-29T10:40:00.098Z,999.98
2022-11-29T10:45:00.132Z,999.91
2022-11-29T10:50:00.101Z,999.95
2022-11-29T10:55:00.109Z,999.94
2022-11-29T11:00:00.143Z,1000.01
2022-11-29T11:05:00.118Z,999.92
2022-11-29T11:10:00.093Z,999.97
2022-11-29T11:15:00.128Z,999.93
2022-11-29T11:20:00.134Z,999.96
2022-11-29T11:25:00.145Z,999.96
2022-11-29T11:30:00.132Z,1000.02
2022-11-29T11:35:00.117Z,1000.05
2022-11-29T11:40:00.239Z,1000.15
2022-11-29T11:45:00.581Z,1000.24
2022-11-29T11:50:00.100Z,1000.16
2022-11-29T11:55:00.104Z,1000.21
2022-11-29T12:00:05.153Z,1000.21
2022-11-29T12:05:00.154Z,1000.19
2022-11-29T12:10:00.088Z,1000.2
2022-11-29T12:15:00.103Z,1000.27
2022-11-29T12:20:00.128Z,1000.33
2022-11-29T12:25:00.157Z,1000.28
2022-11-29T12:30:00.244Z,1000.35
2022-11-29T12:35:00.162Z,1000.4
2022-11-29T12:40:00.093Z,1000.38
2022-11-29T12:45:00.151Z,1000.42
2022-11-29T12:50:00.082Z,1000.39
2022-11-29T12:55:00.114Z,1000.45
2022-11-29T13:00:00.195Z,1000.49
2022-11-29T13:05:00.373Z,1000.54
2022-11-29T13:10:00.123Z,1000.39
2022-11-29T13:15:00.534Z,1000.57
2022-11-29T13:20:00.093Z,1000.54
2022-11-29T13:25:00.143Z,1000.58
2022-11-29T13:30:00.159Z,1000.57
2022-11-29T13:35:00.090Z,1000.69
2022-11-29T13:40:00.104Z,1000.8
2022-11-29T13:45:00.160Z,1000.79
2022-11-29T13:50:00.140Z,1000.79
2022-11-29T13:55:00.114Z,1000.77
2022-11-29T14:00:00.164Z,1000.92
2022-11-29T14:05:00.164Z,1000.85
2022-11-29T14:10:00.094Z,1000.94
2022-11-29T14:15:00.147Z,1000.91
2022-11-29T14:20:00.121Z,1000.88
2022-11-29T14:25:00.141Z,1000.94
2022-11-29T14:30:00.131Z,1000.89
2022-11-29T14:35:00.102Z,1000.97
2022-11-29T14:40:00.088Z,1000.9
2022-11-29T14:45:00.156Z,1000.97
2022-11-29T14:50:00.090Z,1000.96
2022-11-29T14:55:00.106Z,1001.05
2022-11-29T15:00:00.129Z,1001.09
2022-11-29T15:05:00.180Z,1001.12
2022-11-29T15:10:00.098Z,1001.22
2022-11-29T15:15:00.110Z,1001.3
2022-11-29T15:20:00.158Z,1001.31
2022-11-29T15:25:00.127Z,1001.26
2022-11-29T15:30:00.137Z,1001.33
2022-11-29T15:35:00.117Z,1001.34
2022-11-29T15:40:00.216Z,1001.41
2022-11-29T15:45:00.136Z,1001.45
2022-11-29T15:50:00.198Z,1001.39
2022-11-29T15:55:00.136Z,1001.51
2022-11-29T16:00:00.204Z,1001.52
2022-11-29T16:05:00.116Z,1001.57
2022-11-29T16:10:00.275Z,1001.61
2022-11-29T16:15:00.126Z,1001.63
2022-11-29T16:20:00.248Z,1001.78
2022-11-29T16:25:00.126Z,1001.73
2022-11-29T16:30:00.314Z,1001.86
2022-11-29T16:35:00.117Z,1001.92
2022-11-29T16:40:00.144Z,1001.94
2022-11-29T16:45:00.173Z,1001.95
2022-11-29T16:50:00.121Z,1001.95
2022-11-29T16:55:00.177Z,1001.92
2022-11-29T17:00:00.134Z,1001.94
2022-11-29T17:05:00.164Z,1001.97
2022-11-29T17:10:00.114Z,1002.07
2022-11-29T17:15:00.086Z,1002.03
2022-11-29T17:20:00.106Z,1002.05
2022-11-29T17:25:00.130Z,1002.08
2022-11-29T17:30:00.121Z,1002.08
2022-11-29T17:35:00.101Z,1002.18
2022-11-29T17:40:00.154Z,1002.1
2022-11-29T17:45:00.131Z,1002.14
2022-11-29T17:50:00.111Z,1002.25
2022-11-29T17:55:00.150Z,1002.26
2022-11-29T18:00:00.153Z,1002.3
2022-11-29T18:05:00.127Z,1002.3
2022-11-29T18:10:00.115Z,1002.34
2022-11-29T18:15:00.104Z,1002.41
2022-11-29T18:20:00.144Z,1002.37
2022-11-29T18:25:16.099Z,1002.39
2022-11-29T18:30:00.114Z,1002.39
2022-11-29T18:35:00.136Z,1002.42
2022-11-29T18:40:00.152Z,1002.43
2022-11-29T18:45:00.121Z,1002.47
2022-11-29T18:50:00.084Z,1002.5
2022-11-29T18:55:00.136Z,1002.48
2022-11-29T19:00:00.180Z,1002.57
2022-11-29T19:05:00.141Z,1002.48
2022-11-29T19:10:00.119Z,1002.62
2022-11-29T19:15:00.204Z,1002.65
2022-11-29T19:20:00.100Z,1002.7
2022-11-29T19:25:00.147Z,1002.7
2022-11-29T19:30:00.154Z,1002.7
2022-11-29T19:35:00.126Z,1002.7
2022-11-29T19:40:00.101Z,1002.77
2022-11-29T19:45:17.266Z,1002.74
2022-11-29T19:50:02.449Z,1002.72
2022-11-29T19:55:00.095Z,1002.72
2022-11-29T20:00:00.156Z,1002.77
2022-11-29T20:05:00.139Z,1002.82
2022-11-29T20:10:00.129Z,1002.84
2022-11-29T20:15:00.989Z,1002.83
2022-11-29T20:20:00.197Z,1002.99
2022-11-29T20:25:00.124Z,1002.89
2022-11-29T20:30:00.123Z,1002.99
2022-11-29T20:35:00.113Z,1003.04
2022-11-29T20:40:00.170Z,1003.05
2022-11-29T20:45:00.160Z,1003.09
2022-11-29T20:50:00.116Z,1003.13
2022-11-29T20:55:00.105Z,1003.14
2022-11-29T21:00:00.115Z,1003.07
2022-11-29T21:05:00.182Z,1003.2
2022-11-29T21:10:01.491Z,1003.17
2022-11-29T21:15:00.095Z,1003.24
2022-11-29T21:20:00.108Z,1003.33
2022-11-29T21:25:00.170Z,1003.67
2022-11-29T21:30:00.142Z,1003.75
2022-11-29T21:35:00.105Z,1003.78
2022-11-29T21:40:00.120Z,1003.83
2022-11-29T21:45:00.140Z,1003.83
2022-11-29T21:50:00.136Z,1003.84
2022-11-29T21:55:00.112Z,1003.87
2022-11-29T22:00:00.248Z,1003.95
2022-11-29T22:05:00.122Z,1003.99
2022-11-29T22:10:00.119Z,1004.01
2022-11-29T22:15:00.157Z,1003.95
2022-11-29T22:20:00.115Z,1003.93
2022-11-29T22:25:00.130Z,1003.92
2022-11-29T22:30:00.142Z,1003.89
2022-11-29T22:35:00.107Z,1004
2022-11-29T22:40:00.103Z,1003.96
2022-11-29T22:45:00.149Z,1003.94
2022-11-29T22:50:00.102Z,1004.01
2022-11-29T22:55:04.669Z,1004.03
2022-11-29T23:00:00.399Z,1004.02
2022-11-29T23:05:00.117Z,1004.03
2022-11-29T23:10:00.124Z,1003.99
2022-11-29T23:15:00.102Z,1004.02
2022-11-29T23:20:00.105Z,1004.08
2022-11-29T23:25:00.137Z,1004.03
2022-11-29T23:30:00.125Z,1004.04
2022-11-29T23:35:00.126Z,1003.99
2022-11-29T23:40:00.095Z,1003.99
2022-11-29T23:45:00.144Z,1003.93
2022-11-29T23:50:00.137Z,1003.92
2022-11-29T23:55:00.132Z,1003.88
